Mercer, Pennsylvania
Current Conditions -  °F | °C
As of 12:56 AM on Thursday 29 Jan 2015 (Local Time) from KUCP Reporting Station
Clear Clear  
Wind Chill: 19°   Ceiling: Unl
Heat Index: 19°   Visibility: 10mi
Dew Point: 10°   Wind: 0mph
Humidity: 68%   Direction: NA
Pressure: 30.23"   Gusts: NA
Location:  41.23°N, 80.24°W
Report Text: KUCP 290556Z AUTO 00000KT 10SM CLR M07/M12 A3023 RMK AO2 58023 T10721122 11072 21100 SLP268
Loading
Personal Weather Stations






























Interactive Weather Map New forecast layout! Learn more

10-Day Weather Forecast

Advertisements
Track Severe Weather on mobile